Time;durP1;ratioP1;P1;durP2;ratioP2;P2;SDS_P1;SDS_P2;PMS_P1;PMS_P2;Temp;Humidity;BMP_temperature;BMP_pressure;BME280_temperature;BME280_humidity;BME280_pressure;Samples;Min_cycle;Max_cycle;Signal;HPM_P1;HPM_P2
2023/09/03 00:00:57;;;;;;;5.63;5.00;;;;;;;16.60;100.00;99766.75;5028545;28;20037;-44
2023/09/03 00:03:22;;;;;;;6.22;4.70;;;;;;;16.80;100.00;99789.25;5028679;28;20520;-60
2023/09/03 00:05:49;;;;;;;8.32;5.05;;;;;;;16.83;100.00;99794.31;5028677;28;20045;-47
2023/09/03 00:08:15;;;;;;;6.18;4.70;;;;;;;16.84;100.00;99796.84;5010381;28;20119;-49
2023/09/03 00:10:41;;;;;;;7.00;5.00;;;;;;;16.85;100.00;99798.50;5026985;28;20076;-45
2023/09/03 00:13:07;;;;;;;5.60;4.55;;;;;;;16.85;100.00;99801.13;5027411;28;20064;-45
2023/09/03 00:15:36;;;;;;;5.50;4.65;;;;;;;16.75;100.00;99773.72;4993530;28;20045;-48
2023/09/03 00:18:02;;;;;;;6.20;4.93;;;;;;;16.86;100.00;99789.72;5027620;28;20041;-46
2023/09/03 00:20:28;;;;;;;6.80;5.07;;;;;;;16.86;100.00;99796.72;5022628;28;20038;-45
2023/09/03 00:22:54;;;;;;;6.65;5.07;;;;;;;16.83;100.00;99791.69;5027206;28;20040;-47
2023/09/03 00:25:21;;;;;;;6.63;4.90;;;;;;;16.63;100.00;99758.72;5028375;28;20090;-44
2023/09/03 00:27:47;;;;;;;5.63;4.47;;;;;;;16.87;100.00;99803.69;5026667;28;20123;-44
2023/09/03 00:30:13;;;;;;;7.30;4.82;;;;;;;16.86;100.00;99805.47;5029850;28;20131;-43
2023/09/03 00:32:39;;;;;;;6.95;5.32;;;;;;;16.85;100.00;99809.03;5028056;28;20073;-45
2023/09/03 00:35:06;;;;;;;7.68;5.28;;;;;;;16.82;100.00;99808.38;5026935;28;20546;-45
2023/09/03 00:37:31;;;;;;;9.07;5.30;;;;;;;16.80;100.00;99812.88;5026629;28;20037;-48
2023/09/03 00:39:57;;;;;;;5.90;5.03;;;;;;;16.75;100.00;99817.50;5025624;28;20047;-44
2023/09/03 00:42:23;;;;;;;8.05;4.88;;;;;;;16.68;100.00;99814.41;5023293;28;20053;-46
2023/09/03 00:44:49;;;;;;;6.65;5.15;;;;;;;16.60;100.00;99816.63;5027248;28;20087;-45
2023/09/03 00:47:17;;;;;;;7.03;5.72;;;;;;;16.52;100.00;99817.03;5025372;28;20076;-46
2023/09/03 00:49:43;;;;;;;7.63;5.43;;;;;;;16.48;100.00;99814.69;5048173;28;20056;-46
2023/09/03 00:52:10;;;;;;;6.55;5.32;;;;;;;16.44;100.00;99819.22;5008153;28;20038;-44
2023/09/03 00:54:36;;;;;;;9.27;5.30;;;;;;;16.41;100.00;99818.56;5025841;28;20033;-47
2023/09/03 00:57:03;;;;;;;9.23;5.40;;;;;;;16.42;100.00;99825.50;5023349;28;20047;-48
2023/09/03 00:59:30;;;;;;;10.00;5.57;;;;;;;16.40;100.00;99822.97;5021346;28;20096;-43
2023/09/03 01:01:56;;;;;;;7.03;5.10;;;;;;;16.30;100.00;99813.06;4975841;28;20497;-44
2023/09/03 01:04:22;;;;;;;9.55;6.28;;;;;;;16.40;100.00;99827.38;5009448;28;20042;-49
2023/09/03 01:06:48;;;;;;;7.75;5.50;;;;;;;16.24;100.00;99803.75;5026200;28;20517;-45
2023/09/03 01:09:17;;;;;;;7.10;5.68;;;;;;;16.37;100.00;99819.69;5025063;28;20047;-46
2023/09/03 01:11:52;;;;;;;7.20;5.68;;;;;;;16.36;100.00;99823.22;5019498;28;20046;-44
2023/09/03 01:14:50;;;;;;;8.52;5.20;;;;;;;16.34;100.00;99828.56;4993291;28;20075;-45
2023/09/03 01:17:19;;;;;;;9.07;5.53;;;;;;;16.32;100.00;99824.34;5022249;28;20056;-49
2023/09/03 01:20:25;;;;;;;6.45;5.15;;;;;;;16.27;100.00;99826.38;5027052;28;20056;-48
2023/09/03 01:23:12;;;;;;;7.10;5.43;;;;;;;16.10;100.00;99828.13;5023855;28;20036;-46
2023/09/03 01:25:58;;;;;;;8.65;5.50;;;;;;;15.99;100.00;99827.88;5009689;28;20041;-45
2023/09/03 01:28:25;;;;;;;8.07;5.75;;;;;;;15.89;100.00;99823.22;5019595;28;20044;-46
2023/09/03 01:31:02;;;;;;;10.45;6.68;;;;;;;15.88;100.00;99818.88;5026879;28;20080;-49
2023/09/03 01:33:30;;;;;;;11.45;6.82;;;;;;;15.85;100.00;99821.69;5031901;28;20041;-48
2023/09/03 01:35:59;;;;;;;9.87;6.47;;;;;;;15.82;100.00;99816.59;4987111;28;20049;-46
2023/09/03 01:38:25;;;;;;;;;;;;;;;15.82;100.00;99825.31;5027950;28;20509;-46
2023/09/03 01:40:52;;;;;;;9.63;6.97;;;;;;;15.77;100.00;99823.84;5034300;28;19916;-44
2023/09/03 01:43:17;;;;;;;9.70;6.18;;;;;;;15.68;100.00;99810.31;5005806;28;20120;-47
2023/09/03 01:45:54;;;;;;;9.55;7.25;;;;;;;15.69;100.00;99824.28;5024831;28;20137;-48
2023/09/03 01:48:54;;;;;;;11.40;7.47;;;;;;;15.49;100.00;99796.44;4993444;28;20069;-44
2023/09/03 01:51:35;;;;;;;13.40;7.93;;;;;;;15.62;100.00;99822.91;5047729;28;20041;-43
2023/09/03 01:54:18;;;;;;;11.65;7.65;;;;;;;15.58;100.00;99829.22;5037837;28;20037;-44
2023/09/03 01:56:51;;;;;;;12.75;7.38;;;;;;;15.48;100.00;99822.75;5033429;28;20063;-44
2023/09/03 01:59:49;;;;;;;12.65;7.57;;;;;;;15.52;100.00;99843.50;5009314;28;20049;-45
2023/09/03 02:02:15;;;;;;;16.48;7.90;;;;;;;15.27;100.00;99809.00;5020404;28;20049;-44
2023/09/03 02:04:41;;;;;;;10.80;7.75;;;;;;;15.45;100.00;99834.22;5007277;28;20133;-49
2023/09/03 02:07:07;;;;;;;12.65;7.75;;;;;;;15.27;100.00;99804.59;4989224;28;20124;-45
2023/09/03 02:09:33;;;;;;;13.85;6.75;;;;;;;15.45;100.00;99839.47;5024789;28;20041;-45
2023/09/03 02:11:59;;;;;;;10.98;7.78;;;;;;;15.44;100.00;99835.13;5026306;28;20041;-50
2023/09/03 02:14:26;;;;;;;12.18;7.25;;;;;;;15.41;100.00;99837.09;5011022;28;20056;-49
2023/09/03 02:16:53;;;;;;;11.65;7.53;;;;;;;15.38;100.00;99843.34;5029281;28;20038;-48
2023/09/03 02:19:19;;;;;;;13.40;7.90;;;;;;;15.35;100.00;99835.63;5012837;28;20037;-45
2023/09/03 02:21:46;;;;;;;12.18;7.78;;;;;;;15.33;100.00;99841.88;5029206;28;20056;-48
2023/09/03 02:24:12;;;;;;;13.48;7.72;;;;;;;15.31;100.00;99851.56;5028450;28;20525;-44
2023/09/03 02:26:42;;;;;;;9.23;6.90;;;;;;;15.28;100.00;99847.38;5012529;28;20149;-50
2023/09/03 02:29:08;;;;;;;8.68;6.57;;;;;;;15.26;100.00;99852.66;5019890;28;20049;-47
2023/09/03 02:31:34;;;;;;;10.68;6.95;;;;;;;15.27;100.00;99849.13;5026475;28;20119;-44
2023/09/03 02:34:00;;;;;;;9.18;7.20;;;;;;;15.27;100.00;99850.91;5029038;28;20049;-45
2023/09/03 02:36:26;;;;;;;13.13;6.95;;;;;;;15.25;100.00;99847.50;5025815;28;20041;-45
2023/09/03 02:39:02;;;;;;;8.70;6.32;;;;;;;15.23;100.00;99850.19;5029431;28;20631;-49
2023/09/03 02:41:31;;;;;;;14.10;7.60;;;;;;;15.22;100.00;99852.91;5006154;28;20524;-47
2023/09/03 02:43:59;;;;;;;10.23;7.13;;;;;;;15.15;100.00;99851.50;5004967;28;20041;-44
2023/09/03 02:46:25;;;;;;;10.95;7.50;;;;;;;15.19;100.00;99860.91;5030069;28;20132;-50
2023/09/03 02:48:54;;;;;;;10.50;7.20;;;;;;;15.18;100.00;99862.66;5028657;28;20124;-45
2023/09/03 02:51:20;;;;;;;11.85;7.28;;;;;;;15.18;100.00;99867.06;5012417;28;20065;-49
2023/09/03 02:53:47;;;;;;;11.23;7.47;;;;;;;15.16;100.00;99859.31;5027841;28;20128;-45
2023/09/03 02:56:14;;;;;;;12.95;7.35;;;;;;;15.17;100.00;99862.78;5026875;28;20065;-46
2023/09/03 02:58:40;;;;;;;12.15;7.15;;;;;;;15.16;100.00;99866.31;5025102;28;20047;-48
2023/09/03 03:01:12;;;;;;;10.93;7.20;;;;;;;15.15;100.00;99865.47;5028508;28;20124;-47
2023/09/03 03:03:38;;;;;;;11.48;7.55;;;;;;;15.12;100.00;99867.38;5028045;28;20543;-44
2023/09/03 03:06:04;;;;;;;14.32;7.22;;;;;;;15.11;100.00;99863.06;5028409;28;20056;-47
2023/09/03 03:08:30;;;;;;;10.85;7.30;;;;;;;14.91;100.00;99834.41;5032371;28;20088;-46
2023/09/03 03:11:07;;;;;;;9.73;7.05;;;;;;;15.10;100.00;99861.38;5025333;28;20041;-45
2023/09/03 03:13:34;;;;;;;14.15;7.13;;;;;;;14.94;100.00;99837.72;4978024;28;20140;-44
2023/09/03 03:16:13;;;;;;;13.15;7.32;;;;;;;15.11;100.00;99858.69;5021198;28;20062;-48
2023/09/03 03:18:45;;;;;;;13.07;7.28;;;;;;;15.11;100.00;99863.91;5009970;28;20115;-49
2023/09/03 03:21:17;;;;;;;10.25;7.10;;;;;;;15.12;100.00;99864.78;5010267;28;20079;-46
2023/09/03 03:23:49;;;;;;;13.73;7.47;;;;;;;15.11;100.00;99856.06;5026895;28;20069;-46
2023/09/03 03:26:16;;;;;;;12.25;7.68;;;;;;;15.12;100.00;99860.38;5008985;28;20037;-45
2023/09/03 03:28:42;;;;;;;11.55;7.18;;;;;;;15.17;100.00;99860.16;5024431;28;20046;-46
2023/09/03 03:31:17;;;;;;;11.50;7.63;;;;;;;15.20;100.00;99852.13;5027911;28;20041;-48
2023/09/03 03:33:47;;;;;;;13.93;7.40;;;;;;;15.24;100.00;99864.13;5018738;28;20045;-46
2023/09/03 03:36:20;;;;;;;11.05;6.82;;;;;;;15.28;100.00;99863.91;5011613;28;20044;-46
2023/09/03 03:38:46;;;;;;;14.68;7.32;;;;;;;15.34;100.00;99867.13;5021621;28;20037;-45
2023/09/03 03:41:14;;;;;;;11.38;6.55;;;;;;;15.40;100.00;99858.97;5027775;28;20045;-47
2023/09/03 03:43:44;;;;;;;10.27;6.47;;;;;;;15.45;100.00;99860.41;5008301;28;20053;-44
2023/09/03 03:46:13;;;;;;;13.68;6.82;;;;;;;15.30;100.00;99824.53;5022297;28;20041;-45
2023/09/03 03:48:39;;;;;;;11.23;6.78;;;;;;;15.55;100.00;99851.19;4994681;28;20040;-45
2023/09/03 03:51:05;;;;;;;15.30;8.80;;;;;;;15.59;100.00;99852.75;5028094;28;20152;-45
2023/09/03 03:53:31;;;;;;;9.70;6.65;;;;;;;15.45;100.00;99825.50;5027142;28;20120;-48
2023/09/03 03:56:00;;;;;;;9.38;6.57;;;;;;;15.68;100.00;99860.13;5011207;28;20045;-45
2023/09/03 03:58:28;;;;;;;12.90;6.65;;;;;;;15.76;100.00;99857.09;5007789;28;20072;-48
2023/09/03 04:00:54;;;;;;;8.98;6.00;;;;;;;15.87;100.00;99859.13;5002949;28;20432;-46
2023/09/03 04:03:22;;;;;;;10.52;5.93;;;;;;;15.97;100.00;99858.56;5027790;28;20575;-48
2023/09/03 04:06:02;;;;;;;7.78;6.07;;;;;;;16.09;100.00;99864.94;5027039;28;20076;-45
2023/09/03 04:08:30;;;;;;;11.25;8.07;;;;;;;16.19;100.00;99860.88;5027220;28;20584;-46
2023/09/03 04:10:57;;;;;;;13.37;6.47;;;;;;;16.11;100.00;99831.63;5019465;28;20100;-47
2023/09/03 04:13:24;;;;;;;8.55;6.28;;;;;;;16.35;100.00;99864.38;5010870;28;20049;-47
2023/09/03 04:15:50;;;;;;;9.10;6.10;;;;;;;16.31;100.00;99843.63;5026128;28;20048;-44
2023/09/03 04:18:16;;;;;;;13.57;7.15;;;;;;;16.51;100.00;99861.72;5025779;28;20497;-49
2023/09/03 04:20:42;;;;;;;11.15;7.03;;;;;;;16.66;100.00;99871.41;5025242;28;20406;-46
2023/09/03 04:23:08;;;;;;;11.38;7.32;;;;;;;16.56;100.00;99843.09;5051409;28;20049;-45
2023/09/03 04:25:34;;;;;;;8.75;6.07;;;;;;;16.67;100.00;99852.09;5013763;28;20041;-44
2023/09/03 04:28:00;;;;;;;6.97;5.50;;;;;;;16.91;100.00;99873.47;5022135;28;20521;-43
2023/09/03 04:30:27;;;;;;;9.95;5.68;;;;;;;17.00;100.00;99875.59;5023566;28;20057;-47
2023/09/03 04:32:53;;;;;;;9.13;5.53;;;;;;;16.87;100.00;99837.81;5009231;28;20052;-46
2023/09/03 04:35:19;;;;;;;7.95;5.30;;;;;;;17.05;99.03;99867.44;5009994;28;20033;-45
2023/09/03 04:37:45;;;;;;;8.55;5.72;;;;;;;17.18;98.67;99871.03;5009962;28;20041;-49
2023/09/03 04:40:11;;;;;;;7.13;5.13;;;;;;;17.28;98.27;99873.03;5025617;28;20045;-49
2023/09/03 04:42:37;;;;;;;7.78;5.00;;;;;;;17.35;97.74;99865.66;5025991;28;20029;-45
2023/09/03 04:45:04;;;;;;;6.53;4.93;;;;;;;17.29;97.12;99842.34;5025932;28;20123;-44
2023/09/03 04:47:30;;;;;;;6.45;5.07;;;;;;;17.58;96.24;99874.81;5026896;28;20136;-44
2023/09/03 04:49:56;;;;;;;8.00;5.18;;;;;;;17.65;95.05;99881.41;4986711;28;20132;-44
2023/09/03 04:52:22;;;;;;;10.15;5.18;;;;;;;17.71;94.18;99863.47;5005664;28;20061;-47
2023/09/03 04:54:48;;;;;;;7.60;5.60;;;;;;;17.76;93.24;99871.09;5025968;28;20635;-44
2023/09/03 04:57:14;;;;;;;7.05;5.93;;;;;;;17.79;92.65;99870.91;5023123;28;20040;-49
2023/09/03 04:59:40;;;;;;;6.45;5.00;;;;;;;17.85;92.00;99869.69;5025418;28;20464;-50
2023/09/03 05:02:06;;;;;;;9.02;5.22;;;;;;;17.85;91.36;99865.25;5046920;28;20050;-45
2023/09/03 05:04:33;;;;;;;8.15;5.50;;;;;;;17.86;90.84;99869.59;5025963;28;20060;-45
2023/09/03 05:06:59;;;;;;;7.03;5.25;;;;;;;17.79;90.63;99866.47;5023861;28;20072;-47
2023/09/03 05:09:25;;;;;;;7.25;5.35;;;;;;;17.80;90.42;99867.31;5027922;28;20037;-46
2023/09/03 05:11:51;;;;;;;8.70;5.75;;;;;;;17.63;90.36;99841.22;5018902;28;20076;-46
2023/09/03 05:14:17;;;;;;;9.25;5.28;;;;;;;17.81;90.19;99871.66;5025794;28;20086;-48
2023/09/03 05:16:43;;;;;;;8.25;5.47;;;;;;;17.71;89.40;99854.75;5024325;28;20072;-49
2023/09/03 05:19:14;;;;;;;9.30;5.90;;;;;;;17.83;89.03;99858.41;5026251;28;20038;-47
2023/09/03 05:21:43;;;;;;;7.20;5.68;;;;;;;17.66;88.63;99823.47;5027882;28;20034;-45
2023/09/03 05:24:12;;;;;;;6.40;5.03;;;;;;;18.03;88.28;99858.88;5007093;28;20144;-43
2023/09/03 05:26:38;;;;;;;7.75;5.93;;;;;;;18.17;87.63;99861.47;5026208;28;20037;-44
2023/09/03 05:29:04;;;;;;;8.02;5.35;;;;;;;18.37;86.76;99862.84;5024680;28;20049;-45
2023/09/03 05:31:30;;;;;;;8.23;5.40;;;;;;;18.58;85.80;99864.16;5020243;28;20064;-46
2023/09/03 05:33:57;;;;;;;11.57;5.90;;;;;;;18.76;84.46;99864.75;5058061;28;20046;-46
2023/09/03 05:36:24;;;;;;;6.63;4.95;;;;;;;18.98;83.04;99870.31;5022258;28;20045;-47
2023/09/03 05:38:50;;;;;;;9.48;5.95;;;;;;;19.22;81.87;99874.88;4992965;28;20034;-46
2023/09/03 05:41:16;;;;;;;8.05;5.53;;;;;;;19.43;80.46;99874.28;5025690;28;20046;-45
2023/09/03 05:43:43;;;;;;;10.88;5.35;;;;;;;19.64;78.95;99866.75;5008193;28;20057;-47
2023/09/03 05:46:09;;;;;;;5.72;4.75;;;;;;;19.75;77.46;99847.53;5008919;28;20037;-46
2023/09/03 05:48:36;;;;;;;8.88;5.63;;;;;;;20.03;75.82;99867.56;5028368;28;20041;-44
2023/09/03 05:51:05;;;;;;;7.60;4.55;;;;;;;20.26;74.69;99866.78;4995058;28;20429;-48
2023/09/03 05:53:34;;;;;;;5.78;4.78;;;;;;;20.53;73.26;99866.63;5027169;28;20401;-47
2023/09/03 05:56:07;;;;;;;5.85;4.55;;;;;;;20.69;72.31;99873.34;4999011;28;20046;-45
2023/09/03 05:58:34;;;;;;;5.80;4.63;;;;;;;20.72;71.34;99874.94;5038778;28;20517;-47
2023/09/03 06:01:08;;;;;;;5.22;4.20;;;;;;;20.70;70.82;99876.81;4996169;28;20033;-48
2023/09/03 06:03:34;;;;;;;11.73;5.10;;;;;;;20.62;70.45;99872.09;5029138;28;20124;-47
2023/09/03 06:06:10;;;;;;;6.55;5.10;;;;;;;20.57;70.34;99865.44;5028984;28;20564;-46
2023/09/03 06:08:38;;;;;;;6.50;4.70;;;;;;;20.62;69.99;99876.56;5050715;28;20520;-47
2023/09/03 06:11:05;;;;;;;11.95;4.60;;;;;;;20.69;69.74;99875.97;5021567;28;20060;-46
2023/09/03 06:13:33;;;;;;;8.77;5.35;;;;;;;20.68;69.41;99874.28;5029293;28;20049;-46
2023/09/03 06:15:59;;;;;;;10.63;5.18;;;;;;;20.68;69.46;99855.78;5024681;28;20104;-46
2023/09/03 06:18:25;;;;;;;6.18;4.30;;;;;;;20.81;68.58;99845.16;5029404;28;20056;-46
2023/09/03 06:20:51;;;;;;;9.05;4.90;;;;;;;20.92;67.37;99833.81;5028454;28;20037;-51
2023/09/03 06:23:21;;;;;;;8.35;4.68;;;;;;;21.18;67.05;99859.16;5026183;28;20501;-48
2023/09/03 06:25:50;;;;;;;5.70;4.30;;;;;;;21.48;66.18;99856.00;5024910;28;20052;-44
2023/09/03 06:28:16;;;;;;;6.72;4.68;;;;;;;21.79;65.17;99851.81;5028859;28;20045;-52
2023/09/03 06:30:42;;;;;;;6.20;4.45;;;;;;;22.23;63.82;99851.84;5024317;28;20059;-49
2023/09/03 06:33:10;;;;;;;5.45;3.60;;;;;;;22.84;62.04;99857.50;5027575;28;20128;-48
2023/09/03 06:35:36;;;;;;;4.50;3.75;;;;;;;23.10;60.81;99860.66;5006877;28;21847;-47
2023/09/03 06:38:03;;;;;;;6.90;4.00;;;;;;;22.96;59.66;99848.53;5029307;28;20509;-50
2023/09/03 06:40:29;;;;;;;4.82;3.88;;;;;;;23.13;59.23;99855.09;5011932;28;20087;-58
2023/09/03 06:42:54;;;;;;;5.47;3.90;;;;;;;23.22;58.68;99859.63;4996075;28;20058;-54
2023/09/03 06:45:20;;;;;;;7.90;4.18;;;;;;;23.36;58.52;99861.97;5005173;28;20046;-41
2023/09/03 06:47:46;;;;;;;6.47;4.25;;;;;;;23.37;58.04;99865.47;5027750;28;20136;-39
2023/09/03 06:50:13;;;;;;;7.05;3.83;;;;;;;23.40;57.95;99863.38;5026018;28;20599;-43
2023/09/03 06:52:39;;;;;;;6.90;3.28;;;;;;;23.49;57.52;99856.50;5022594;28;20045;-56
2023/09/03 06:55:05;;;;;;;5.90;3.67;;;;;;;23.51;57.26;99860.69;5027975;28;20042;-58
2023/09/03 06:57:32;;;;;;;7.18;3.80;;;;;;;23.37;56.42;99868.09;5028376;28;20509;-53
2023/09/03 06:59:59;;;;;;;6.10;3.58;;;;;;;23.29;56.18;99863.44;5027803;28;20049;-47
2023/09/03 07:02:27;;;;;;;7.07;3.70;;;;;;;23.22;56.35;99836.59;5022683;28;20037;-49
2023/09/03 07:04:53;;;;;;;5.88;3.90;;;;;;;23.31;56.09;99850.91;5010792;28;20042;-47
2023/09/03 07:07:19;;;;;;;8.15;4.20;;;;;;;23.34;55.85;99860.41;5060207;28;20041;-46
2023/09/03 07:09:45;;;;;;;5.72;3.67;;;;;;;23.39;55.74;99855.56;5011832;28;20410;-44
2023/09/03 07:12:11;;;;;;;4.65;3.60;;;;;;;23.47;56.04;99848.66;5026643;28;20060;-47
2023/09/03 07:14:37;;;;;;;4.78;3.65;;;;;;;23.40;56.23;99834.19;5024978;28;20111;-45
2023/09/03 07:17:03;;;;;;;8.00;3.92;;;;;;;23.46;56.20;99832.84;5028622;28;20041;-51
2023/09/03 07:19:30;;;;;;;8.32;4.25;;;;;;;23.63;56.21;99856.16;5034799;28;20041;-45
2023/09/03 07:21:56;;;;;;;8.00;4.40;;;;;;;23.73;55.81;99859.69;5032491;28;20038;-45
2023/09/03 07:24:22;;;;;;;6.55;3.80;;;;;;;23.82;55.07;99858.91;5021979;28;20050;-44
2023/09/03 07:26:48;;;;;;;6.53;4.20;;;;;;;23.95;54.82;99862.19;5011121;28;20080;-46
2023/09/03 07:29:14;;;;;;;4.95;3.53;;;;;;;24.07;54.32;99865.59;5027184;28;20041;-47
2023/09/03 07:31:42;;;;;;;4.60;3.53;;;;;;;24.10;53.75;99835.25;5010656;28;20034;-51
2023/09/03 07:34:11;;;;;;;5.28;3.38;;;;;;;24.42;52.97;99857.19;5008381;28;20107;-45
2023/09/03 07:36:37;;;;;;;;;;;;;;;25.39;51.59;99852.78;5020826;28;20041;-45
2023/09/03 07:39:08;;;;;;;4.78;3.67;;;;;;;26.20;50.72;99859.28;5007975;28;20646;-47
2023/09/03 07:41:34;;;;;;;4.72;3.35;;;;;;;27.33;47.67;99828.44;5025919;28;20091;-46
2023/09/03 07:44:00;;;;;;;5.43;3.85;;;;;;;28.51;45.29;99850.81;5022324;28;20041;-44
2023/09/03 07:46:26;;;;;;;5.65;3.05;;;;;;;28.80;44.05;99846.88;5017851;28;20065;-42
2023/09/03 07:48:52;;;;;;;3.42;3.10;;;;;;;29.66;43.11;99855.25;5027013;28;20424;-45
2023/09/03 07:51:19;;;;;;;7.60;3.85;;;;;;;29.36;43.17;99852.25;5011769;28;20049;-43
2023/09/03 07:53:48;;;;;;;4.07;3.35;;;;;;;29.38;41.80;99850.25;5009640;28;20037;-46
2023/09/03 07:56:15;;;;;;;3.95;2.95;;;;;;;30.13;40.63;99849.94;5027740;28;20079;-49
2023/09/03 07:58:44;;;;;;;9.75;3.55;;;;;;;30.36;40.10;99850.03;5027569;28;20091;-45
2023/09/03 08:01:16;;;;;;;5.55;3.35;;;;;;;30.66;39.34;99862.63;5027282;28;20472;-48
2023/09/03 08:03:43;;;;;;;5.63;2.90;;;;;;;31.39;37.48;99860.25;5022818;28;20051;-46
2023/09/03 08:06:10;;;;;;;4.30;2.83;;;;;;;31.21;36.88;99859.72;5048752;28;20033;-48
2023/09/03 08:08:38;;;;;;;4.35;3.10;;;;;;;31.24;36.63;99842.41;5031882;28;20056;-46
2023/09/03 08:11:04;;;;;;;3.92;2.80;;;;;;;31.58;35.57;99836.56;5028041;28;20107;-48
2023/09/03 08:13:30;;;;;;;4.85;3.13;;;;;;;31.27;35.14;99875.13;5023313;28;20041;-49
2023/09/03 08:15:56;;;;;;;5.03;2.92;;;;;;;32.06;34.28;99868.28;5019775;28;20072;-47
2023/09/03 08:18:23;;;;;;;3.92;2.90;;;;;;;33.02;33.12;99877.97;5005831;28;20043;-46
2023/09/03 08:20:49;;;;;;;3.78;3.17;;;;;;;34.37;31.50;99868.63;5022558;28;20140;-47
2023/09/03 08:23:15;;;;;;;4.72;2.55;;;;;;;35.17;30.80;99871.31;5023953;28;20053;-51
2023/09/03 08:25:41;;;;;;;4.35;2.70;;;;;;;34.91;30.28;99865.91;5050362;28;20103;-47
2023/09/03 08:28:08;;;;;;;4.10;2.40;;;;;;;35.37;29.24;99867.84;5027238;28;20517;-51
2023/09/03 08:30:35;;;;;;;5.25;2.75;;;;;;;36.06;28.51;99874.41;5028242;28;20037;-44
2023/09/03 08:33:01;;;;;;;3.13;2.30;;;;;;;37.15;27.08;99847.25;5018399;28;20507;-50
2023/09/03 08:35:28;;;;;;;5.72;2.53;;;;;;;38.61;25.28;99877.28;5048206;28;20091;-48
2023/09/03 08:37:54;;;;;;;2.38;2.08;;;;;;;39.58;23.90;99876.00;5009645;28;20139;-48
2023/09/03 08:40:20;;;;;;;4.10;2.58;;;;;;;40.00;23.02;99854.91;5023935;28;20122;-51
2023/09/03 08:42:47;;;;;;;2.90;2.30;;;;;;;40.95;22.52;99870.72;5026890;28;20033;-51
2023/09/03 08:45:16;;;;;;;15.95;3.13;;;;;;;41.45;22.15;99873.50;5028376;28;20049;-55
2023/09/03 08:47:44;;;;;;;4.10;2.80;;;;;;;41.38;21.23;99870.13;5005919;28;20095;-45
2023/09/03 08:50:14;;;;;;;5.22;3.05;;;;;;;41.72;21.26;99869.00;5025481;28;20519;-61
2023/09/03 08:52:43;;;;;;;2.42;1.95;;;;;;;41.73;20.40;99867.09;5023340;28;20364;-51
2023/09/03 08:55:12;;;;;;;4.07;3.67;;;;;;;39.99;21.52;99871.50;5026250;28;20049;-51
2023/09/03 08:57:38;;;;;;;10.30;2.65;;;;;;;38.87;23.24;99863.31;5025598;28;20127;-48
2023/09/03 09:00:08;;;;;;;2.58;2.30;;;;;;;37.24;24.62;99873.03;5027861;28;20056;-52
2023/09/03 09:02:36;;;;;;;6.43;1.90;;;;;;;35.41;26.28;99874.50;5023935;28;20045;-57
2023/09/03 09:05:07;;;;;;;4.43;2.10;;;;;;;34.73;27.27;99866.50;5009188;28;20467;-55
2023/09/03 09:07:33;;;;;;;4.93;4.40;;;;;;;34.49;27.45;99844.59;5007352;28;20052;-50
2023/09/03 09:10:05;;;;;;;3.53;1.90;;;;;;;35.14;26.83;99860.94;5041505;28;20042;-50
2023/09/03 09:12:42;;;;;;;3.33;1.70;;;;;;;34.16;27.44;99831.75;5024842;28;20428;-50
2023/09/03 09:15:08;;;;;;;3.05;1.50;;;;;;;32.92;27.27;99842.44;5015330;28;20100;-49
2023/09/03 09:17:42;;;;;;;2.92;1.35;;;;;;;32.47;28.41;99854.34;5023643;28;20053;-54
2023/09/03 09:20:09;;;;;;;3.63;2.13;;;;;;;32.59;29.09;99859.06;5025209;28;20045;-51
2023/09/03 09:22:43;;;;;;;4.03;2.07;;;;;;;34.56;27.07;99858.91;5029893;28;20061;-49
2023/09/03 09:25:16;;;;;;;1.70;1.50;;;;;;;35.09;26.01;99847.22;5029680;28;20378;-48
2023/09/03 09:27:42;;;;;;;1.83;1.50;;;;;;;36.69;24.41;99858.34;5015980;28;20042;-50
2023/09/03 09:30:10;;;;;;;5.60;2.63;;;;;;;38.60;23.00;99867.47;5028924;28;21278;-44
2023/09/03 09:32:35;;;;;;;2.45;2.20;;;;;;;38.89;22.40;99863.09;5008193;28;20578;-49
2023/09/03 09:35:02;;;;;;;5.38;2.60;;;;;;;37.78;23.91;99862.56;5012679;28;20045;-49
2023/09/03 09:37:39;;;;;;;6.55;2.80;;;;;;;37.03;25.00;99862.53;5031917;28;20037;-54
2023/09/03 09:40:06;;;;;;;4.45;3.08;;;;;;;37.96;23.98;99846.25;5030144;28;20341;-55
2023/09/03 09:42:31;;;;;;;5.67;2.80;;;;;;;39.46;23.46;99849.84;5017160;28;20038;-50
2023/09/03 09:45:01;;;;;;;3.60;2.47;;;;;;;38.60;23.69;99866.63;5014069;28;20295;-45
2023/09/03 09:47:32;;;;;;;8.35;2.88;;;;;;;36.11;25.83;99823.16;5011659;28;20051;-58
2023/09/03 09:49:58;;;;;;;6.97;2.38;;;;;;;34.22;27.05;99855.28;5008001;28;20513;-49
2023/09/03 09:52:34;;;;;;;5.45;2.58;;;;;;;33.08;29.10;99843.00;5006034;28;20072;-53
2023/09/03 09:55:00;;;;;;;6.40;2.72;;;;;;;32.10;30.19;99849.91;5020184;28;20038;-53
2023/09/03 09:57:27;;;;;;;5.63;3.30;;;;;;;31.32;32.13;99834.25;5008747;28;20053;-46
2023/09/03 10:00:01;;;;;;;7.85;3.33;;;;;;;31.04;32.99;99842.06;5033602;28;20053;-46
2023/09/03 10:02:38;;;;;;;5.55;2.80;;;;;;;30.62;33.04;99853.22;5012891;28;20702;-51
2023/09/03 10:05:09;;;;;;;8.07;2.53;;;;;;;30.10;33.63;99847.59;5011050;28;20505;-46
2023/09/03 10:07:35;;;;;;;7.97;3.47;;;;;;;29.63;34.98;99851.06;5011457;28;20033;-52
2023/09/03 10:10:02;;;;;;;10.20;4.60;;;;;;;29.37;35.75;99845.91;5028590;28;20088;-48
2023/09/03 10:12:30;;;;;;;6.70;2.90;;;;;;;29.04;36.64;99841.56;5025730;28;20422;-49
2023/09/03 10:14:55;;;;;;;4.03;2.60;;;;;;;28.59;37.92;99850.81;5002111;28;20067;-48
2023/09/03 10:17:21;;;;;;;6.35;3.30;;;;;;;28.29;37.72;99842.53;5011031;28;20045;-46
2023/09/03 10:19:51;;;;;;;5.32;2.63;;;;;;;27.80;38.71;99853.81;5023660;28;20046;-47
2023/09/03 10:22:23;;;;;;;7.95;2.88;;;;;;;27.39;39.69;99852.69;4976699;28;20116;-46
2023/09/03 10:24:55;;;;;;;5.57;2.38;;;;;;;27.12;39.48;99844.78;5028224;28;20046;-51
2023/09/03 10:27:25;;;;;;;4.28;2.30;;;;;;;27.05;39.30;99848.25;4991953;28;20044;-51
2023/09/03 10:29:51;;;;;;;5.10;2.08;;;;;;;27.02;39.11;99845.88;5010215;28;20076;-47
2023/09/03 10:32:18;;;;;;;5.65;3.03;;;;;;;26.87;39.81;99842.91;4999075;28;20048;-49
2023/09/03 10:34:44;;;;;;;8.63;3.83;;;;;;;26.58;39.93;99827.09;5018838;28;20049;-49
2023/09/03 10:37:13;;;;;;;3.50;2.10;;;;;;;26.26;40.67;99802.75;5012228;28;20044;-52
2023/09/03 10:39:42;;;;;;;4.63;2.20;;;;;;;26.31;40.89;99848.44;5028604;28;20041;-51
2023/09/03 10:42:14;;;;;;;;;;;;;;;26.25;41.11;99854.38;5024361;28;20037;-53
2023/09/03 10:44:59;;;;;;;7.03;2.53;;;;;;;26.29;41.72;99845.94;5027541;28;19928;-50
2023/09/03 10:47:26;;;;;;;4.20;2.40;;;;;;;26.41;41.67;99857.22;5024080;28;20630;-47
2023/09/03 10:49:53;;;;;;;5.85;2.90;;;;;;;26.51;42.22;99856.19;4999868;28;20037;-46
2023/09/03 10:52:30;;;;;;;6.00;2.72;;;;;;;26.56;41.60;99859.25;5013378;28;20053;-47
2023/09/03 10:55:15;;;;;;;5.00;2.80;;;;;;;26.46;41.69;99853.13;5042007;28;20045;-45
2023/09/03 10:57:42;;;;;;;4.00;2.13;;;;;;;26.35;40.99;99853.34;5021960;28;20084;-49
2023/09/03 11:00:13;;;;;;;5.65;2.40;;;;;;;26.27;40.93;99849.75;4994908;28;20041;-44
2023/09/03 11:02:40;;;;;;;7.85;2.58;;;;;;;26.79;40.40;99858.81;5028611;28;20423;-48
2023/09/03 11:05:24;;;;;;;4.07;2.22;;;;;;;26.92;40.99;99857.47;5009360;28;20586;-45
2023/09/03 11:08:29;;;;;;;4.60;2.53;;;;;;;26.98;40.64;99848.84;5010825;28;20227;-47
2023/09/03 11:10:56;;;;;;;4.90;2.92;;;;;;;27.04;40.47;99857.22;5024612;28;20132;-45
2023/09/03 11:13:22;;;;;;;4.60;2.80;;;;;;;26.85;41.16;99835.00;5016348;28;20136;-46
2023/09/03 11:15:55;;;;;;;5.20;2.28;;;;;;;26.87;41.85;99858.91;5025948;28;20145;-45
2023/09/03 11:18:22;;;;;;;6.35;2.53;;;;;;;26.89;41.42;99852.44;5032443;28;20057;-44
2023/09/03 11:20:51;;;;;;;4.95;2.45;;;;;;;28.00;39.63;99851.72;5027650;28;20038;-46
2023/09/03 11:23:17;;;;;;;4.78;2.90;;;;;;;29.10;38.10;99848.88;5011092;28;20051;-47
2023/09/03 11:25:43;;;;;;;6.45;2.25;;;;;;;30.91;35.86;99857.91;4977660;28;20048;-46
2023/09/03 11:28:13;;;;;;;7.30;2.53;;;;;;;32.02;34.14;99860.78;5001944;28;20548;-50
2023/09/03 11:30:41;;;;;;;29.92;5.30;;;;;;;33.80;31.02;99853.56;4995011;28;20048;-47
2023/09/03 11:33:10;;;;;;;10.80;2.95;;;;;;;35.05;28.98;99858.66;5028104;28;20045;-44
2023/09/03 11:35:54;;;;;;;4.05;2.30;;;;;;;36.23;26.98;99858.56;5008428;28;20048;-53